Time;durP1;ratioP1;P1;durP2;ratioP2;P2;SDS_P1;SDS_P2;PMS_P1;PMS_P2;Temp;Humidity;BMP_temperature;BMP_pressure;BME280_temperature;BME280_humidity;BME280_pressure;Samples;Min_cycle;Max_cycle;Signal;HPM_P1;HPM_P2
2023/02/19 00:02:09;;;;;;;10.23;9.57;;;;;;;10.25;100.00;97233.44;5055008;28;20202;-79
2023/02/19 00:04:34;;;;;;;12.80;12.00;;;;;;;10.29;100.00;97229.41;5054825;28;20186;-79
2023/02/19 00:06:59;;;;;;;12.70;11.97;;;;;;;10.18;100.00;97227.47;5054669;28;20238;-79
2023/02/19 00:09:25;;;;;;;11.03;10.43;;;;;;;10.24;100.00;97225.84;5055217;28;20194;-79
2023/02/19 00:11:50;;;;;;;11.43;10.73;;;;;;;10.36;100.00;97224.94;5054599;28;20277;-79
2023/02/19 00:14:20;;;;;;;8.20;7.70;;;;;;;10.24;100.00;97220.59;5054427;28;20288;-79
2023/02/19 00:16:45;;;;;;;7.17;6.73;;;;;;;10.32;100.00;97217.69;5054903;28;20198;-79
2023/02/19 00:19:13;;;;;;;6.13;5.77;;;;;;;10.29;100.00;97220.75;5054242;28;21870;-79
2023/02/19 00:21:39;;;;;;;6.07;5.67;;;;;;;10.27;100.00;97214.91;5054684;28;20607;-79
2023/02/19 00:24:06;;;;;;;6.30;6.00;;;;;;;10.33;100.00;97222.72;5054657;28;20197;-79
2023/02/19 00:26:33;;;;;;;6.17;5.77;;;;;;;10.42;100.00;97212.78;5054874;28;20204;-79
2023/02/19 00:29:00;;;;;;;6.37;5.90;;;;;;;10.33;100.00;97216.69;5053828;28;20209;-79
2023/02/19 00:31:30;;;;;;;7.90;7.40;;;;;;;10.36;100.00;97211.03;5053708;28;20206;-79
2023/02/19 00:33:58;;;;;;;6.87;6.47;;;;;;;10.35;100.00;97206.81;5053059;28;20225;-80
2023/02/19 00:36:25;;;;;;;6.23;5.83;;;;;;;10.27;100.00;97209.66;5054159;28;20190;-79
2023/02/19 00:38:51;;;;;;;5.60;5.30;;;;;;;10.31;100.00;97211.66;5053248;28;20198;-79
2023/02/19 00:41:17;;;;;;;4.87;4.57;;;;;;;10.27;100.00;97213.09;5054566;28;20551;-79
2023/02/19 00:44:04;;;;;;;5.53;5.23;;;;;;;10.35;100.00;97210.22;5052963;28;20276;-79
2023/02/19 00:46:30;;;;;;;5.97;5.57;;;;;;;10.37;100.00;97217.84;5053216;28;20201;-80
2023/02/19 00:48:57;;;;;;;5.87;5.37;;;;;;;10.35;100.00;97214.66;5054252;28;20225;-80
2023/02/19 00:51:25;;;;;;;4.87;4.57;;;;;;;10.33;100.00;97211.44;5052187;28;20209;-80
2023/02/19 00:53:51;;;;;;;5.63;5.30;;;;;;;10.19;100.00;97218.63;5054291;28;20213;-79
2023/02/19 00:56:17;;;;;;;6.37;5.97;;;;;;;10.06;100.00;97213.44;5053451;28;20198;-79
2023/02/19 00:58:42;;;;;;;4.77;4.47;;;;;;;10.12;100.00;97217.81;5054407;28;20304;-79
2023/02/19 01:01:10;;;;;;;4.90;4.60;;;;;;;10.07;100.00;97215.03;5055551;28;20284;-79
2023/02/19 01:03:36;;;;;;;4.40;4.20;;;;;;;10.29;100.00;97203.22;5052264;28;20614;-79
2023/02/19 01:06:03;;;;;;;4.83;4.53;;;;;;;10.31;100.00;97202.97;5053947;28;20198;-79
2023/02/19 01:08:29;;;;;;;4.77;4.40;;;;;;;10.20;100.00;97190.56;5053671;28;20201;-79
2023/02/19 01:10:55;;;;;;;4.63;4.33;;;;;;;10.15;100.00;97195.63;5052671;28;20194;-79
2023/02/19 01:13:21;;;;;;;4.80;4.57;;;;;;;10.19;100.00;97194.25;5053851;28;20193;-79
2023/02/19 01:15:46;;;;;;;4.77;4.47;;;;;;;10.11;100.00;97195.25;5053485;28;20193;-79
2023/02/19 01:18:11;;;;;;;4.97;4.60;;;;;;;10.14;100.00;97179.09;5052191;28;20277;-79
2023/02/19 01:20:39;;;;;;;5.10;4.80;;;;;;;10.14;100.00;97186.19;5053256;28;20204;-79
2023/02/19 01:23:05;;;;;;;4.80;4.50;;;;;;;9.99;100.00;97178.63;5053230;28;20621;-79
2023/02/19 01:25:30;;;;;;;5.17;4.87;;;;;;;10.02;100.00;97181.63;5053829;28;20232;-79
2023/02/19 01:27:55;;;;;;;5.10;4.80;;;;;;;10.07;100.00;97177.56;5053271;28;20521;-79
2023/02/19 01:30:21;;;;;;;5.23;4.90;;;;;;;10.06;100.00;97175.97;5053000;28;20674;-79
2023/02/19 01:32:46;;;;;;;4.97;4.67;;;;;;;9.99;100.00;97189.09;5053081;28;20194;-78
2023/02/19 01:35:11;;;;;;;4.60;4.23;;;;;;;10.03;100.00;97180.59;5053241;28;20225;-79
2023/02/19 01:37:36;;;;;;;4.87;4.57;;;;;;;9.93;100.00;97174.22;5052618;28;20192;-79
2023/02/19 01:40:02;;;;;;;4.43;4.13;;;;;;;9.96;100.00;97164.16;5053751;28;20197;-79
2023/02/19 01:42:27;;;;;;;6.93;6.43;;;;;;;10.00;100.00;97165.34;5053376;28;20186;-79
2023/02/19 01:44:53;;;;;;;8.90;8.27;;;;;;;9.90;100.00;97162.38;5053363;28;20193;-79
2023/02/19 01:47:19;;;;;;;7.60;7.20;;;;;;;9.78;100.00;97164.09;5053401;28;20223;-79
2023/02/19 01:49:55;;;;;;;6.50;6.13;;;;;;;9.82;100.00;97162.63;5053034;28;20650;-80
2023/02/19 01:52:28;;;;;;;4.90;4.60;;;;;;;9.86;100.00;97169.03;5050546;28;20655;-79
2023/02/19 01:54:54;;;;;;;5.77;5.47;;;;;;;9.77;100.00;97159.84;5053339;28;20559;-79
2023/02/19 01:57:24;;;;;;;6.00;5.60;;;;;;;9.80;100.00;97164.69;5053491;28;20206;-79
2023/02/19 01:59:54;;;;;;;6.37;6.00;;;;;;;9.79;100.00;97167.50;5053387;28;20204;-79
2023/02/19 02:02:20;;;;;;;5.90;5.57;;;;;;;9.77;100.00;97161.66;5053037;28;20271;-80
2023/02/19 02:04:46;;;;;;;5.80;5.50;;;;;;;9.82;100.00;97159.22;5052825;28;20202;-79
2023/02/19 02:12:40;;;;;;;5.07;4.77;;;;;;;9.64;100.00;97151.31;5052752;28;20649;-80
2023/02/19 02:15:06;;;;;;;5.50;5.20;;;;;;;9.67;100.00;97153.47;5051548;28;20209;-79
2023/02/19 02:17:47;;;;;;;6.03;5.63;;;;;;;9.69;100.00;97156.69;5052480;28;20472;-79
2023/02/19 02:20:34;;;;;;;7.77;7.27;;;;;;;9.65;100.00;97158.91;5052486;28;20604;-79
2023/02/19 02:23:07;;;;;;;6.87;6.47;;;;;;;9.59;100.00;97159.75;5052481;28;20213;-79
2023/02/19 02:25:57;;;;;;;5.40;5.00;;;;;;;9.61;100.00;97155.13;5052234;28;20264;-79
2023/02/19 02:28:54;;;;;;;5.03;4.57;;;;;;;9.60;100.00;97158.75;5052958;28;20182;-79
2023/02/19 02:31:27;;;;;;;5.93;5.53;;;;;;;9.51;100.00;97150.38;5024793;28;20204;-79
2023/02/19 02:33:57;;;;;;;4.90;4.47;;;;;;;9.51;100.00;97141.72;5052592;28;20225;-79
2023/02/19 02:36:30;;;;;;;5.03;4.67;;;;;;;9.46;100.00;97142.34;5052667;28;20665;-79
2023/02/19 02:38:57;;;;;;;4.63;4.33;;;;;;;9.36;100.00;97128.13;5052340;28;20284;-79
2023/02/19 02:41:23;;;;;;;5.07;4.70;;;;;;;9.28;100.00;97136.22;5052823;28;20193;-79
2023/02/19 02:43:49;;;;;;;5.10;4.73;;;;;;;9.27;100.00;97137.22;5054012;28;20194;-79
2023/02/19 02:46:20;;;;;;;4.90;4.60;;;;;;;9.28;100.00;97125.75;5053329;28;20193;-79
2023/02/19 02:48:55;;;;;;;4.70;4.40;;;;;;;9.18;100.00;97121.78;5051931;28;20559;-79
2023/02/19 02:51:31;;;;;;;5.00;4.70;;;;;;;9.24;100.00;97127.19;5050879;28;20200;-79
2023/02/19 02:56:55;;;;;;;4.70;4.40;;;;;;;9.19;100.00;97128.59;5052344;28;20217;-79
2023/02/19 02:59:23;;;;;;;4.70;4.30;;;;;;;9.23;100.00;97129.00;5051294;28;20201;-79
2023/02/19 03:02:17;;;;;;;4.83;4.63;;;;;;;9.34;100.00;97122.28;5051679;28;20670;-79
2023/02/19 03:07:40;;;;;;;5.20;4.90;;;;;;;9.27;100.00;97122.31;5052625;28;20189;-79
2023/02/19 03:10:13;;;;;;;5.60;5.20;;;;;;;9.29;100.00;97124.75;5052312;28;20194;-79
2023/02/19 03:21:02;;;;;;;5.40;5.13;;;;;;;9.05;100.00;97119.22;5052097;28;20658;-79
2023/02/19 03:26:18;;;;;;;5.60;5.30;;;;;;;8.82;100.00;97118.91;5037891;28;20201;-79
2023/02/19 03:31:31;;;;;;;9.10;8.60;;;;;;;8.89;100.00;97117.06;5055536;28;20567;-79
2023/02/19 03:34:00;;;;;;;11.80;11.17;;;;;;;8.67;100.00;97111.34;5055129;28;20232;-79
2023/02/19 03:36:34;;;;;;;10.23;9.63;;;;;;;8.64;100.00;97109.13;5054499;28;20226;-79
2023/02/19 03:39:02;;;;;;;9.20;8.60;;;;;;;8.67;100.00;97124.41;5055454;28;20235;-79
2023/02/19 03:41:35;;;;;;;9.10;8.40;;;;;;;8.66;100.00;97112.34;5055825;28;20217;-79
2023/02/19 03:44:14;;;;;;;7.67;7.17;;;;;;;8.68;100.00;97112.94;5055695;28;20236;-79
2023/02/19 03:46:58;;;;;;;6.77;6.23;;;;;;;8.62;100.00;97118.19;5055557;28;20205;-79
2023/02/19 03:49:42;;;;;;;6.90;6.43;;;;;;;8.62;100.00;97126.03;5053542;28;20237;-79
2023/02/19 03:52:17;;;;;;;6.37;5.97;;;;;;;8.62;100.00;97120.78;5053625;28;20577;-79
2023/02/19 03:55:02;;;;;;;5.57;5.20;;;;;;;8.45;100.00;97124.84;5055026;28;20244;-79
2023/02/19 03:57:50;;;;;;;5.63;5.30;;;;;;;8.49;100.00;97132.06;5055490;28;20266;-78
2023/02/19 04:00:16;;;;;;;5.47;5.17;;;;;;;8.44;100.00;97125.84;5055386;28;20271;-78
2023/02/19 04:02:56;;;;;;;4.80;4.60;;;;;;;8.42;100.00;97131.28;5055364;28;20198;-78
2023/02/19 04:05:30;;;;;;;4.93;4.73;;;;;;;8.46;100.00;97129.88;5054978;28;20550;-79
2023/02/19 04:08:01;;;;;;;5.10;4.80;;;;;;;8.53;100.00;97135.88;5055043;28;20189;-79
2023/02/19 04:10:28;;;;;;;4.90;4.60;;;;;;;8.57;100.00;97141.50;5055317;28;20170;-79
2023/02/19 04:13:05;;;;;;;4.83;4.53;;;;;;;8.54;100.00;97145.31;5055029;28;20234;-79
2023/02/19 04:15:33;;;;;;;4.73;4.43;;;;;;;8.54;100.00;97137.50;5054953;28;20201;-79
2023/02/19 04:18:04;;;;;;;4.33;4.13;;;;;;;8.51;100.00;97143.13;5055009;28;20205;-79
2023/02/19 04:20:36;;;;;;;4.63;4.43;;;;;;;8.55;100.00;97151.34;5054993;28;20182;-79
2023/02/19 04:23:02;;;;;;;4.67;4.47;;;;;;;8.65;100.00;97151.72;5054660;28;20643;-79
2023/02/19 04:25:29;;;;;;;5.10;4.23;;;;;;;8.49;100.00;97150.34;5055054;28;20285;-79
2023/02/19 04:27:54;;;;;;;5.03;4.73;;;;;;;8.51;100.00;97153.59;5055064;28;20248;-78
2023/02/19 04:30:20;;;;;;;4.53;4.33;;;;;;;8.60;100.00;97151.53;5053872;28;20190;-79
2023/02/19 04:32:46;;;;;;;3.57;3.40;;;;;;;8.60;100.00;97149.72;5054246;28;20221;-78
2023/02/19 04:35:11;;;;;;;4.13;3.97;;;;;;;8.57;100.00;97159.81;5054773;28;20297;-79
2023/02/19 04:37:36;;;;;;;4.63;4.43;;;;;;;8.60;100.00;97162.00;5053419;28;20899;-79
2023/02/19 04:40:02;;;;;;;3.90;3.80;;;;;;;8.58;100.00;97167.41;5053547;28;20622;-79
2023/02/19 04:42:27;;;;;;;4.17;3.97;;;;;;;8.49;100.00;97162.63;5053765;28;20190;-79
2023/02/19 04:44:53;;;;;;;4.47;4.27;;;;;;;8.53;100.00;97175.06;5054874;28;20218;-79
2023/02/19 04:47:18;;;;;;;3.90;3.63;;;;;;;8.57;100.00;97172.88;5054636;28;20235;-78
2023/02/19 04:49:44;;;;;;;4.07;3.93;;;;;;;8.57;100.00;97173.66;5052719;28;20224;-79
2023/02/19 04:52:10;;;;;;;4.83;4.63;;;;;;;8.52;100.00;97178.72;5053142;28;20243;-79
2023/02/19 04:54:35;;;;;;;3.67;3.57;;;;;;;8.58;100.00;97190.94;5054522;28;20287;-79
2023/02/19 04:57:00;;;;;;;4.60;4.40;;;;;;;8.46;100.00;97189.16;5054663;28;20281;-78
2023/02/19 04:59:26;;;;;;;4.33;4.13;;;;;;;8.59;100.00;97195.16;5054627;28;20280;-78
2023/02/19 05:01:51;;;;;;;3.90;3.80;;;;;;;8.59;100.00;97194.34;5054304;28;20193;-79
2023/02/19 05:04:17;;;;;;;5.07;4.87;;;;;;;8.54;100.00;97197.56;5053588;28;20596;-79
2023/02/19 05:06:42;;;;;;;4.77;4.57;;;;;;;8.54;100.00;97199.38;5054685;28;20186;-79
2023/02/19 05:09:07;;;;;;;4.73;4.53;;;;;;;8.50;100.00;97209.44;5054128;28;20247;-79
2023/02/19 05:11:33;;;;;;;3.57;3.47;;;;;;;8.51;100.00;97205.84;5054105;28;20190;-79
2023/02/19 05:13:58;;;;;;;4.33;4.20;;;;;;;8.53;100.00;97188.13;5053820;28;20547;-79
2023/02/19 05:16:23;;;;;;;4.13;3.93;;;;;;;8.57;100.00;97194.56;5052539;28;20193;-79
2023/02/19 05:18:49;;;;;;;4.30;4.10;;;;;;;8.58;100.00;97198.75;5053167;28;20190;-79
2023/02/19 05:21:14;;;;;;;3.47;3.37;;;;;;;8.61;100.00;97200.19;5053221;28;20190;-79
2023/02/19 05:23:40;;;;;;;4.23;4.10;;;;;;;8.60;100.00;97207.22;5053530;28;20283;-79
2023/02/19 05:26:17;;;;;;;3.83;3.73;;;;;;;8.56;100.00;97218.28;5053793;28;20186;-79
2023/02/19 05:28:49;;;;;;;4.17;4.07;;;;;;;8.54;100.00;97213.25;5053839;28;20182;-78
2023/02/19 05:31:15;;;;;;;4.30;4.10;;;;;;;8.53;100.00;97198.56;5053254;28;20193;-79
2023/02/19 05:33:41;;;;;;;3.53;3.43;;;;;;;8.61;100.00;97200.97;5052459;28;20218;-79
2023/02/19 05:36:12;;;;;;;3.33;3.23;;;;;;;8.56;100.00;97198.19;5053464;28;20232;-79
2023/02/19 05:38:39;;;;;;;3.73;3.53;;;;;;;8.53;100.00;97213.44;5051893;28;20197;-79
2023/02/19 05:41:20;;;;;;;3.90;3.80;;;;;;;8.45;100.00;97214.47;5053442;28;20549;-79
2023/02/19 05:43:47;;;;;;;4.37;4.27;;;;;;;8.62;100.00;97207.81;5052958;28;20213;-79
2023/02/19 05:46:15;;;;;;;4.13;4.03;;;;;;;8.71;100.00;97214.44;5053001;28;20186;-79
2023/02/19 05:48:41;;;;;;;6.47;6.20;;;;;;;8.58;100.00;97204.00;5048316;28;20609;-79
2023/02/19 05:51:09;;;;;;;6.40;6.10;;;;;;;8.48;100.00;97208.84;5045721;28;20194;-79
2023/02/19 05:53:35;;;;;;;3.83;3.73;;;;;;;8.59;100.00;97223.09;5052904;28;20585;-79
2023/02/19 05:56:01;;;;;;;3.37;3.27;;;;;;;8.48;100.00;97216.66;5053299;28;20220;-79
2023/02/19 05:58:26;;;;;;;2.87;2.77;;;;;;;8.48;100.00;97221.09;5053092;28;20190;-78
2023/02/19 06:00:52;;;;;;;3.33;3.23;;;;;;;8.48;100.00;97221.09;5053210;28;20555;-79
2023/02/19 06:03:17;;;;;;;3.53;3.43;;;;;;;8.48;100.00;97208.03;5052480;28;20223;-80
2023/02/19 06:05:43;;;;;;;2.97;2.87;;;;;;;8.62;100.00;97225.31;5052817;28;20190;-79
2023/02/19 06:08:11;;;;;;;4.30;4.10;;;;;;;8.59;100.00;97234.34;5051536;28;20204;-79
2023/02/19 06:10:39;;;;;;;3.13;3.03;;;;;;;8.43;100.00;97231.34;5053231;28;20185;-78
2023/02/19 06:13:04;;;;;;;3.27;3.17;;;;;;;8.41;100.00;97231.56;5052925;28;20293;-78
2023/02/19 06:15:32;;;;;;;5.90;5.70;;;;;;;8.32;100.00;97245.81;5052108;28;20284;-79
2023/02/19 06:17:57;;;;;;;4.30;4.20;;;;;;;8.16;100.00;97239.16;5052694;28;20194;-79
2023/02/19 06:20:28;;;;;;;4.47;4.37;;;;;;;8.14;100.00;97245.56;5052956;28;20289;-78
2023/02/19 06:22:59;;;;;;;17.50;15.90;;;;;;;7.97;100.00;97245.13;5050962;28;20183;-77
2023/02/19 06:25:25;;;;;;;9.37;8.87;;;;;;;7.75;100.00;97252.31;5034883;28;20255;-78
2023/02/19 06:27:50;;;;;;;5.93;5.73;;;;;;;7.73;100.00;97258.75;5052458;28;20591;-79
2023/02/19 06:30:16;;;;;;;4.50;4.37;;;;;;;7.72;100.00;97263.16;5051968;28;20244;-79
2023/02/19 06:32:41;;;;;;;3.63;3.53;;;;;;;7.64;100.00;97270.34;5052928;28;20610;-79
2023/02/19 06:35:06;;;;;;;4.60;4.40;;;;;;;7.63;100.00;97258.31;5052445;28;20281;-78
2023/02/19 06:37:32;;;;;;;3.60;3.50;;;;;;;7.63;100.00;97266.97;5051717;28;20186;-79
2023/02/19 06:39:57;;;;;;;3.30;3.20;;;;;;;7.62;100.00;97277.56;5051516;28;20275;-79
2023/02/19 06:42:23;;;;;;;3.33;3.23;;;;;;;7.63;100.00;97271.38;5050540;28;20201;-79
2023/02/19 06:44:48;;;;;;;3.47;3.37;;;;;;;7.62;100.00;97273.16;5052081;28;20204;-77
2023/02/19 06:47:14;;;;;;;3.50;3.40;;;;;;;7.68;100.00;97266.38;5062512;28;20600;-78
2023/02/19 06:49:39;;;;;;;5.00;4.80;;;;;;;7.67;100.00;97278.59;5051632;28;20697;-77
2023/02/19 06:52:05;;;;;;;3.20;3.10;;;;;;;7.69;100.00;97287.00;5053736;28;20190;-77
2023/02/19 06:54:32;;;;;;;6.27;5.90;;;;;;;7.70;100.00;97291.25;5051375;28;20205;-78
2023/02/19 06:56:58;;;;;;;4.93;4.73;;;;;;;7.81;100.00;97295.91;5052081;28;20218;-78
2023/02/19 06:59:24;;;;;;;4.03;3.90;;;;;;;7.80;100.00;97296.88;5052340;28;20205;-79
2023/02/19 07:01:49;;;;;;;7.33;7.03;;;;;;;7.85;100.00;97291.91;5054745;28;20198;-79
2023/02/19 07:04:15;;;;;;;4.03;3.93;;;;;;;7.93;100.00;97298.75;5055826;28;20194;-81
2023/02/19 07:06:40;;;;;;;3.63;3.47;;;;;;;7.91;100.00;97301.53;5056253;28;20570;-78
2023/02/19 07:09:07;;;;;;;3.60;3.50;;;;;;;7.98;100.00;97308.59;5054961;28;20186;-79
2023/02/19 07:11:34;;;;;;;4.50;4.30;;;;;;;7.98;100.00;97319.84;5056180;28;20217;-79
2023/02/19 07:14:03;;;;;;;5.20;5.00;;;;;;;8.00;100.00;97312.63;5055807;28;20201;-77
2023/02/19 07:16:29;;;;;;;5.20;5.00;;;;;;;7.98;100.00;97316.41;5055242;28;20252;-83
2023/02/19 07:18:56;;;;;;;13.67;12.83;;;;;;;7.87;100.00;97316.00;5056034;28;20178;-77
2023/02/19 07:21:22;;;;;;;5.40;5.10;;;;;;;7.99;100.00;97324.06;5056234;28;20217;-81
2023/02/19 07:23:48;;;;;;;5.97;5.67;;;;;;;7.91;100.00;97325.03;5055612;28;20197;-79
2023/02/19 07:26:15;;;;;;;4.00;3.90;;;;;;;7.96;100.00;97328.88;5055321;28;20198;-80
2023/02/19 07:28:45;;;;;;;4.13;3.97;;;;;;;7.92;100.00;97336.28;5055605;28;20190;-78
2023/02/19 07:31:12;;;;;;;5.80;5.50;;;;;;;7.91;100.00;97340.69;5055026;28;20220;-80
2023/02/19 07:33:37;;;;;;;4.30;4.20;;;;;;;8.02;100.00;97336.72;5055139;28;20593;-76
2023/02/19 07:36:06;;;;;;;5.37;5.17;;;;;;;8.08;100.00;97327.31;5055790;28;20198;-77
2023/02/19 07:38:31;;;;;;;5.30;5.10;;;;;;;8.10;100.00;97339.16;5054980;28;20320;-77
2023/02/19 07:40:59;;;;;;;4.50;4.30;;;;;;;8.11;100.00;97321.69;5055151;28;20273;-77
2023/02/19 07:43:27;;;;;;;4.83;4.57;;;;;;;8.15;100.00;97334.13;5055360;28;20190;-76
2023/02/19 07:45:53;;;;;;;3.37;3.27;;;;;;;8.09;100.00;97323.66;5055284;28;20198;-78
2023/02/19 07:48:18;;;;;;;3.40;3.30;;;;;;;8.21;100.00;97322.09;5052369;28;20202;-76
2023/02/19 07:50:50;;;;;;;3.50;3.40;;;;;;;8.29;100.00;97327.16;5055373;28;20201;-76
2023/02/19 07:53:16;;;;;;;6.60;6.20;;;;;;;8.25;100.00;97315.47;5053942;28;20216;-77
2023/02/19 07:55:41;;;;;;;4.93;4.73;;;;;;;8.26;100.00;97327.53;5055315;28;20256;-77
2023/02/19 07:58:06;;;;;;;6.23;5.90;;;;;;;8.40;100.00;97331.00;5057551;28;20194;-78
2023/02/19 08:00:32;;;;;;;5.50;5.20;;;;;;;8.50;100.00;97334.84;5055399;28;20213;-78
2023/02/19 08:03:00;;;;;;;3.80;3.70;;;;;;;8.54;100.00;97333.41;5055457;28;20570;-78
2023/02/19 08:05:44;;;;;;;3.73;3.63;;;;;;;8.50;100.00;97334.84;5052962;28;20711;-79
2023/02/19 08:08:12;;;;;;;4.37;4.17;;;;;;;8.56;100.00;97328.00;5054725;28;20186;-79
2023/02/19 08:13:24;;;;;;;4.23;4.03;;;;;;;8.62;100.00;97314.16;5053581;28;20197;-78
2023/02/19 08:15:54;;;;;;;3.77;3.67;;;;;;;8.64;100.00;97318.16;5054911;28;20206;-80
2023/02/19 08:18:23;;;;;;;5.43;5.13;;;;;;;8.73;100.00;97316.97;5054721;28;20639;-84
2023/02/19 08:20:48;;;;;;;9.47;8.97;;;;;;;8.79;99.25;97335.44;5055032;28;20205;-77
2023/02/19 08:23:14;;;;;;;8.37;7.97;;;;;;;8.97;100.00;97340.88;5054477;28;20186;-82
2023/02/19 08:25:40;;;;;;;7.70;7.30;;;;;;;8.87;100.00;97338.66;5055455;28;20267;-81
2023/02/19 08:28:07;;;;;;;3.70;3.57;;;;;;;9.01;100.00;97358.56;5054505;28;20202;-80
2023/02/19 08:30:32;;;;;;;3.10;3.00;;;;;;;8.91;100.00;97367.81;5053862;28;20724;-80
2023/02/19 08:33:00;;;;;;;2.93;2.83;;;;;;;9.04;100.00;97371.22;5053969;28;20189;-77
2023/02/19 08:35:27;;;;;;;4.10;3.90;;;;;;;8.91;100.00;97383.50;5053109;28;20297;-77
2023/02/19 08:37:57;;;;;;;3.03;2.93;;;;;;;8.79;100.00;97383.31;5054190;28;20202;-79
2023/02/19 08:40:24;;;;;;;3.10;2.97;;;;;;;8.59;100.00;97388.50;5054358;28;20189;-77
2023/02/19 08:42:50;;;;;;;2.83;2.73;;;;;;;8.43;100.00;97388.88;5054345;28;20197;-77
2023/02/19 08:45:16;;;;;;;3.47;3.30;;;;;;;8.60;100.00;97395.34;5054016;28;20197;-79
2023/02/19 08:47:41;;;;;;;3.17;3.00;;;;;;;8.77;100.00;97393.94;5052317;28;20217;-78
2023/02/19 08:50:07;;;;;;;2.90;2.80;;;;;;;8.76;100.00;97400.19;5054217;28;20198;-79
2023/02/19 08:52:32;;;;;;;3.00;2.90;;;;;;;8.86;100.00;97402.38;5052716;28;20260;-79
2023/02/19 08:54:58;;;;;;;3.07;2.97;;;;;;;8.85;100.00;97413.06;5053817;28;20674;-79
2023/02/19 08:57:23;;;;;;;3.40;3.20;;;;;;;8.88;100.00;97412.66;5053361;28;20193;-78
2023/02/19 08:59:49;;;;;;;3.10;3.00;;;;;;;8.84;100.00;97421.91;5053721;28;20278;-78
2023/02/19 09:02:14;;;;;;;3.07;2.97;;;;;;;8.85;100.00;97421.72;5052750;28;20186;-79
2023/02/19 09:04:40;;;;;;;3.00;2.80;;;;;;;8.77;100.00;97429.72;5053917;28;20202;-77
2023/02/19 09:07:09;;;;;;;3.47;3.17;;;;;;;8.74;100.00;97420.50;5053150;28;20190;-79
2023/02/19 09:09:39;;;;;;;2.87;2.63;;;;;;;8.82;100.00;97429.13;5053979;28;20209;-78
2023/02/19 09:12:06;;;;;;;3.37;3.10;;;;;;;8.87;100.00;97437.19;5052612;28;20204;-79
2023/02/19 09:14:33;;;;;;;3.70;3.50;;;;;;;8.85;100.00;97418.28;5050592;28;20229;-79
2023/02/19 09:16:58;;;;;;;3.77;3.17;;;;;;;8.74;100.00;97436.19;5052301;28;20186;-80
2023/02/19 09:19:25;;;;;;;3.03;2.93;;;;;;;8.80;100.00;97444.22;5051008;28;20652;-80
2023/02/19 09:21:50;;;;;;;3.53;3.33;;;;;;;8.84;100.00;97440.19;5052606;28;20192;-80
2023/02/19 09:24:15;;;;;;;3.47;3.37;;;;;;;8.99;100.00;97451.28;5052206;28;20198;-79
2023/02/19 09:26:41;;;;;;;3.90;3.70;;;;;;;9.15;100.00;97448.25;5051507;28;20221;-79
2023/02/19 09:29:06;;;;;;;4.30;3.73;;;;;;;9.19;100.00;97450.25;5051571;28;20273;-79
2023/02/19 09:31:33;;;;;;;4.00;3.80;;;;;;;9.14;100.00;97447.44;5051053;28;20520;-79
2023/02/19 09:33:59;;;;;;;4.23;3.77;;;;;;;9.03;98.09;97449.84;5050709;28;20240;-79
2023/02/19 09:36:24;;;;;;;3.13;2.93;;;;;;;9.04;97.29;97451.47;5052974;28;20186;-80
2023/02/19 09:38:50;;;;;;;4.17;3.87;;;;;;;9.82;100.00;97448.00;5052861;28;20190;-82
2023/02/19 09:41:28;;;;;;;4.40;4.10;;;;;;;9.65;93.08;97451.25;5052676;28;20221;-78
2023/02/19 09:43:54;;;;;;;6.20;5.90;;;;;;;9.50;93.69;97454.91;5052942;28;20197;-85
2023/02/19 09:46:47;;;;;;;16.63;15.67;;;;;;;9.57;92.43;97452.28;5048643;28;20244;-79
2023/02/19 09:49:21;;;;;;;9.77;9.17;;;;;;;9.42;91.02;97449.84;5044880;28;20202;-75
2023/02/19 09:51:53;;;;;;;9.23;8.40;;;;;;;9.49;91.23;97465.56;5051565;28;20651;-76
2023/02/19 09:54:26;;;;;;;6.90;6.50;;;;;;;9.48;90.65;97475.22;5052079;28;20213;-78
2023/02/19 09:56:56;;;;;;;9.90;9.40;;;;;;;9.35;89.40;97470.00;5052811;28;20236;-77
2023/02/19 09:59:44;;;;;;;20.03;19.00;;;;;;;9.35;90.00;97475.25;5046043;28;20267;-83
2023/02/19 10:02:21;;;;;;;17.30;16.37;;;;;;;9.54;88.56;97477.03;5036516;28;20635;-76
2023/02/19 10:04:50;;;;;;;15.47;14.17;;;;;;;9.66;86.27;97464.13;5052343;28;20192;-78
2023/02/19 10:07:19;;;;;;;13.10;12.40;;;;;;;9.69;85.89;97466.34;5051565;28;20201;-76
2023/02/19 10:09:50;;;;;;;11.13;10.53;;;;;;;9.82;85.15;97468.13;5052565;28;20194;-76
2023/02/19 10:12:22;;;;;;;8.03;7.60;;;;;;;9.93;83.82;97467.50;5061382;28;20243;-76
2023/02/19 10:14:50;;;;;;;7.93;7.43;;;;;;;10.01;83.47;97464.66;5057186;28;20246;-76
2023/02/19 10:17:23;;;;;;;13.90;12.83;;;;;;;10.03;82.04;97468.69;5050878;28;20225;-75
2023/02/19 10:19:50;;;;;;;12.80;11.93;;;;;;;9.94;81.83;97456.81;5052316;28;20273;-76
2023/02/19 10:22:17;;;;;;;9.90;9.40;;;;;;;9.94;82.25;97467.31;5051684;28;20662;-76
2023/02/19 10:24:43;;;;;;;10.07;9.47;;;;;;;10.05;81.68;97457.19;5052165;28;20225;-75
2023/02/19 10:27:15;;;;;;;14.63;13.53;;;;;;;10.46;81.83;97460.31;5051894;28;20201;-75
2023/02/19 10:29:46;;;;;;;20.23;19.10;;;;;;;10.49;82.12;97459.06;5050782;28;20206;-76
2023/02/19 10:32:15;;;;;;;16.13;15.23;;;;;;;10.41;81.96;97460.13;5052791;28;20193;-76
2023/02/19 10:34:41;;;;;;;17.13;16.20;;;;;;;10.19;83.75;97469.28;5054879;28;20226;-76
2023/02/19 10:37:14;;;;;;;26.37;24.83;;;;;;;10.28;83.80;97474.06;5056768;28;20197;-76
2023/02/19 10:39:45;;;;;;;17.23;16.17;;;;;;;10.35;83.20;97485.34;5056947;28;20178;-77
2023/02/19 10:42:20;;;;;;;22.07;20.70;;;;;;;10.28;83.04;97484.56;5054728;28;20190;-76
2023/02/19 10:44:50;;;;;;;16.40;15.50;;;;;;;10.30;83.29;97487.78;5058492;28;20679;-76
2023/02/19 10:47:22;;;;;;;16.57;15.53;;;;;;;10.32;82.74;97492.81;5051589;28;20190;-77
2023/02/19 10:49:49;;;;;;;19.13;18.03;;;;;;;10.34;81.75;97494.22;5059006;28;20267;-76
2023/02/19 10:52:24;;;;;;;15.90;14.93;;;;;;;10.31;82.26;97488.56;5056777;28;20186;-79
2023/02/19 10:54:56;;;;;;;13.63;12.60;;;;;;;10.12;82.01;97492.84;5056671;28;20327;-76
2023/02/19 10:57:33;;;;;;;9.53;8.93;;;;;;;10.41;81.83;97489.75;5056729;28;20197;-76
2023/02/19 11:00:21;;;;;;;13.03;12.33;;;;;;;10.33;81.23;97491.78;5056895;28;20178;-75
2023/02/19 11:02:47;;;;;;;36.70;34.80;;;;;;;10.56;80.15;97493.91;5054993;28;20186;-76
2023/02/19 11:05:18;;;;;;;62.20;58.83;;;;;;;10.54;78.60;97490.69;5055365;28;20204;-76
2023/02/19 11:07:43;;;;;;;50.63;47.93;;;;;;;10.61;77.73;97479.16;5034634;28;20187;-76
2023/02/19 11:10:22;;;;;;;28.67;27.00;;;;;;;10.27;76.79;97490.81;5052392;28;20268;-76
2023/02/19 11:12:50;;;;;;;40.30;38.03;;;;;;;10.43;78.38;97485.09;5056050;28;20518;-77
2023/02/19 11:15:19;;;;;;;36.60;34.50;;;;;;;10.71;76.79;97481.34;5055800;28;20255;-76
2023/02/19 11:17:44;;;;;;;22.37;21.13;;;;;;;10.74;75.95;97473.06;5056060;28;20204;-76
2023/02/19 11:20:16;;;;;;;23.07;21.57;;;;;;;10.66;76.37;97495.06;5054750;28;20660;-77
2023/02/19 11:22:45;;;;;;;17.63;16.67;;;;;;;10.54;75.49;97498.56;5055390;28;20197;-75
2023/02/19 11:25:14;;;;;;;19.60;18.33;;;;;;;10.37;76.75;97490.34;5056615;28;20531;-76
2023/02/19 11:28:21;;;;;;;16.97;16.13;;;;;;;10.25;76.82;97490.19;5056766;28;20189;-73
2023/02/19 11:30:47;;;;;;;13.57;12.83;;;;;;;10.61;76.12;97502.75;5055874;28;20225;-76
2023/02/19 11:33:15;;;;;;;12.80;11.97;;;;;;;10.71;75.36;97508.34;5055648;28;20225;-76
2023/02/19 11:35:41;;;;;;;9.40;8.80;;;;;;;10.77;74.44;97501.47;5054919;28;20205;-76
2023/02/19 11:38:10;;;;;;;10.23;9.43;;;;;;;10.60;74.87;97495.91;5053925;28;20202;-76
2023/02/19 11:40:44;;;;;;;9.33;8.73;;;;;;;10.75;75.18;97493.03;5055359;28;20232;-77
2023/02/19 11:43:35;;;;;;;7.83;7.23;;;;;;;10.80;74.48;97507.13;5055634;28;20179;-77
2023/02/19 11:46:36;;;;;;;6.40;5.80;;;;;;;10.77;73.82;97491.78;5053576;28;20198;-77
2023/02/19 11:49:30;;;;;;;6.83;6.27;;;;;;;10.82;74.48;97504.25;5028558;28;20228;-77
2023/02/19 11:52:27;;;;;;;4.43;4.23;;;;;;;11.04;73.03;97508.16;5055483;28;20542;-78
2023/02/19 11:55:38;;;;;;;5.50;5.10;;;;;;;10.66;76.32;97495.06;5053851;28;20264;-78
2023/02/19 11:58:40;;;;;;;4.73;4.33;;;;;;;10.57;79.08;97506.03;5039944;28;20665;-78
2023/02/19 12:01:30;;;;;;;4.67;4.13;;;;;;;10.62;77.49;97503.56;5055409;28;20198;-78
2023/02/19 12:04:16;;;;;;;4.83;4.43;;;;;;;10.84;77.02;97516.16;5055184;28;20261;-77
2023/02/19 12:06:54;;;;;;;5.13;4.83;;;;;;;10.73;76.78;97513.41;5055692;28;20590;-76
2023/02/19 12:09:25;;;;;;;6.10;5.70;;;;;;;10.70;76.61;97524.31;5035450;28;20195;-77